createdAt,value
2024-05-09T00:01:59.433Z,0.00
2024-05-09T00:06:59.319Z,0.00
2024-05-09T00:11:59.430Z,0.00
2024-05-09T00:16:59.301Z,0.00
2024-05-09T00:21:59.140Z,0.00
2024-05-09T00:26:59.073Z,0.00
2024-05-09T00:31:59.090Z,0.00
2024-05-09T00:36:58.916Z,0.00
2024-05-09T00:41:58.861Z,0.00
2024-05-09T00:46:58.853Z,0.00
2024-05-09T00:51:58.744Z,0.00
2024-05-09T00:56:58.668Z,0.00
2024-05-09T01:01:58.651Z,0.00
2024-05-09T01:06:58.529Z,0.00
2024-05-09T01:11:58.610Z,0.00
2024-05-09T01:16:58.645Z,0.00
2024-05-09T01:21:58.328Z,0.00
2024-05-09T01:26:58.257Z,0.00
2024-05-09T01:31:58.254Z,0.00
2024-05-09T01:36:58.126Z,0.00
2024-05-09T01:41:58.070Z,0.00
2024-05-09T01:46:58.056Z,0.00
2024-05-09T01:51:57.977Z,0.00
2024-05-09T01:56:57.895Z,0.00
2024-05-09T02:01:58.118Z,0.00
2024-05-09T02:06:57.758Z,0.00
2024-05-09T02:11:57.821Z,0.00
2024-05-09T02:16:57.676Z,0.00
2024-05-09T02:21:57.565Z,0.00
2024-05-09T02:26:57.494Z,0.00
2024-05-09T02:31:57.507Z,0.00
2024-05-09T02:36:57.368Z,0.00
2024-05-09T02:41:57.297Z,0.00
2024-05-09T02:46:57.285Z,4.00
2024-05-09T02:51:57.188Z,8.00
2024-05-09T02:56:58.003Z,16.00
2024-05-09T03:01:57.136Z,32.00
2024-05-09T03:06:56.972Z,60.00
2024-05-09T03:11:57.190Z,120.00
2024-05-09T03:16:56.905Z,208.00
2024-05-09T03:21:56.774Z,336.00
2024-05-09T03:26:56.694Z,504.00
2024-05-09T03:31:56.718Z,736.00
2024-05-09T03:36:56.576Z,1016.00
2024-05-09T03:41:56.502Z,1436.00
2024-05-09T03:46:56.470Z,1924.00
2024-05-09T03:51:56.355Z,2452.00
2024-05-09T03:56:56.281Z,3032.00
2024-05-09T04:01:56.450Z,3604.00
2024-05-09T04:06:56.224Z,4228.00
2024-05-09T04:11:56.271Z,4828.00
2024-05-09T04:16:56.068Z,5460.00
2024-05-09T04:21:55.959Z,6140.00
2024-05-09T04:26:55.896Z,6932.00
2024-05-09T04:31:55.918Z,39424.00
2024-05-09T04:36:55.760Z,42176.00
2024-05-09T04:41:55.696Z,45952.00
2024-05-09T04:46:55.648Z,48064.00
2024-05-09T04:51:55.565Z,52832.00
2024-05-09T04:56:55.529Z,55104.00
2024-05-09T05:01:55.563Z,57632.00
2024-05-09T05:06:56.033Z,62272.00
2024-05-09T05:11:55.437Z,64320.00
2024-05-09T05:16:55.312Z,66592.00
2024-05-09T05:21:55.213Z,73536.00
2024-05-09T05:26:55.140Z,73216.00
2024-05-09T05:31:55.253Z,76448.00
2024-05-09T05:36:54.999Z,83776.00
2024-05-09T05:41:54.945Z,82880.00
2024-05-09T05:46:54.936Z,84928.00
2024-05-09T05:51:54.821Z,80800.00
2024-05-09T05:56:55.742Z,88448.00
2024-05-09T06:01:54.800Z,85760.00
2024-05-09T06:06:54.639Z,80608.00
2024-05-09T06:11:54.804Z,74816.00
2024-05-09T06:16:57.700Z,79104.00
2024-05-09T06:21:54.447Z,81664.00
2024-05-09T06:26:54.375Z,87104.00
2024-05-09T06:31:55.902Z,86048.00
2024-05-09T06:36:54.304Z,79264.00
2024-05-09T06:41:54.229Z,78144.00
2024-05-09T06:46:57.065Z,87776.00
2024-05-09T06:51:54.085Z,82272.00
2024-05-09T06:56:54.026Z,85120.00
2024-05-09T07:01:53.982Z,93280.00
2024-05-09T07:06:53.886Z,95712.00
2024-05-09T07:11:53.968Z,85856.00
2024-05-09T07:16:53.967Z,43776.00
2024-05-09T07:21:53.708Z,90080.00
2024-05-09T07:26:53.643Z,75104.00
2024-05-09T07:31:53.635Z,87904.00
2024-05-09T07:36:53.521Z,83168.00
2024-05-09T07:41:53.468Z,82624.00
2024-05-09T07:48:13.681Z,52992.00
2024-05-09T07:53:21.677Z,34848.00
2024-05-09T07:56:55.041Z,35840.00
2024-05-09T08:01:53.300Z,38272.00
2024-05-09T08:06:53.191Z,38304.00
2024-05-09T08:11:53.167Z,38496.00
2024-05-09T08:16:53.155Z,40064.00
2024-05-09T08:21:52.976Z,40128.00
2024-05-09T08:26:52.904Z,68768.00
2024-05-09T08:31:52.876Z,45312.00
2024-05-09T08:36:52.838Z,40032.00
2024-05-09T08:41:53.443Z,38944.00
2024-05-09T08:46:52.648Z,40928.00
2024-05-09T08:51:52.634Z,32736.00
2024-05-09T08:56:52.533Z,31328.00
2024-05-09T09:01:52.613Z,14744.00
2024-05-09T09:06:53.216Z,16800.00
2024-05-09T09:11:52.410Z,17696.00
2024-05-09T09:16:52.304Z,16000.00
2024-05-09T09:21:52.295Z,12916.00
2024-05-09T09:26:52.189Z,12868.00
2024-05-09T09:31:52.102Z,15392.00
2024-05-09T09:36:52.050Z,12932.00
2024-05-09T09:41:51.976Z,11852.00
2024-05-09T09:46:52.012Z,14880.00
2024-05-09T09:51:51.939Z,12720.00
2024-05-09T09:56:51.779Z,14016.00
2024-05-09T10:01:51.890Z,13124.00
2024-05-09T10:06:51.726Z,13040.00
2024-05-09T10:11:52.450Z,11204.00
2024-05-09T10:16:52.486Z,11260.00
2024-05-09T10:21:51.463Z,12740.00
2024-05-09T10:26:51.366Z,11988.00
2024-05-09T10:31:51.377Z,11012.00
2024-05-09T10:36:51.284Z,10760.00
2024-05-09T10:41:51.196Z,8676.00
2024-05-09T10:46:51.136Z,9032.00
2024-05-09T10:51:51.088Z,11276.00
2024-05-09T10:56:50.991Z,11140.00
2024-05-09T11:01:51.141Z,10704.00
2024-05-09T11:06:50.891Z,10604.00
2024-05-09T11:11:50.856Z,10632.00
2024-05-09T11:16:50.719Z,7900.00
2024-05-09T11:21:50.736Z,8252.00
2024-05-09T11:26:50.591Z,8212.00
2024-05-09T11:31:50.594Z,9104.00
2024-05-09T11:36:50.565Z,6860.00
2024-05-09T11:41:50.425Z,6524.00
2024-05-09T11:46:50.340Z,8196.00
2024-05-09T11:51:51.341Z,8528.00
2024-05-09T11:56:50.195Z,8992.00
2024-05-09T12:01:50.388Z,8768.00
2024-05-09T12:06:50.114Z,8260.00
2024-05-09T12:11:50.051Z,6020.00
2024-05-09T12:16:50.013Z,5372.00
2024-05-09T12:21:49.976Z,5280.00
2024-05-09T12:26:49.802Z,7068.00
2024-05-09T12:31:49.797Z,6992.00
2024-05-09T12:36:49.701Z,6580.00
2024-05-09T12:41:49.623Z,6668.00
2024-05-09T12:46:49.562Z,6384.00
2024-05-09T12:51:49.551Z,6016.00
2024-05-09T12:56:49.418Z,5912.00
2024-05-09T13:01:49.490Z,5780.00
2024-05-09T13:06:49.525Z,5720.00
2024-05-09T13:11:49.348Z,5528.00
2024-05-09T13:16:49.207Z,5424.00
2024-05-09T13:21:49.187Z,5408.00
2024-05-09T13:26:49.010Z,5364.00
2024-05-09T13:31:48.961Z,5368.00
2024-05-09T13:36:48.958Z,5540.00
2024-05-09T13:41:48.817Z,5464.00
2024-05-09T13:46:48.825Z,5612.00
2024-05-09T13:51:48.781Z,5540.00
2024-05-09T13:56:48.631Z,5364.00
2024-05-09T14:01:48.690Z,5264.00
2024-05-09T14:06:48.523Z,4336.00
2024-05-09T14:11:48.490Z,5012.00
2024-05-09T14:16:48.458Z,5224.00
2024-05-09T14:21:48.330Z,5244.00
2024-05-09T14:26:48.230Z,4812.00
2024-05-09T14:31:48.217Z,3876.00
2024-05-09T14:36:48.120Z,4836.00
2024-05-09T14:41:48.091Z,4820.00
2024-05-09T14:46:48.026Z,3772.00
2024-05-09T14:51:47.970Z,4700.00
2024-05-09T14:56:47.849Z,4612.00
2024-05-09T15:01:47.849Z,4548.00
2024-05-09T15:06:47.821Z,4532.00
2024-05-09T15:11:47.778Z,4528.00
2024-05-09T15:16:47.587Z,4336.00
2024-05-09T15:21:47.570Z,4260.00
2024-05-09T15:26:47.451Z,4336.00
2024-05-09T15:31:47.437Z,3700.00
2024-05-09T15:36:47.343Z,4188.00
2024-05-09T15:41:47.245Z,4152.00
2024-05-09T15:46:47.259Z,3784.00
2024-05-09T15:51:47.137Z,4224.00
2024-05-09T15:56:47.054Z,4188.00
2024-05-09T16:01:47.099Z,4004.00
2024-05-09T16:06:46.935Z,3856.00
2024-05-09T16:11:46.887Z,3840.00
2024-05-09T16:16:46.945Z,3792.00
2024-05-09T16:21:46.799Z,3744.00
2024-05-09T16:26:46.664Z,3668.00
2024-05-09T16:31:46.596Z,3580.00
2024-05-09T16:36:46.591Z,3536.00
2024-05-09T16:41:46.456Z,3528.00
2024-05-09T16:46:46.495Z,3404.00
2024-05-09T16:51:46.355Z,3268.00
2024-05-09T16:56:46.277Z,3224.00
2024-05-09T17:01:46.382Z,3096.00
2024-05-09T17:06:46.161Z,3068.00
2024-05-09T17:11:46.218Z,2968.00
2024-05-09T17:16:46.061Z,2780.00
2024-05-09T17:21:45.969Z,2528.00
2024-05-09T17:26:45.881Z,2348.00
2024-05-09T17:31:45.802Z,2208.00
2024-05-09T17:36:45.766Z,2096.00
2024-05-09T17:41:45.700Z,1988.00
2024-05-09T17:46:45.604Z,1804.00
2024-05-09T17:51:45.584Z,1556.00
2024-05-09T17:56:45.476Z,1376.00
2024-05-09T18:01:45.582Z,1260.00
2024-05-09T18:06:45.378Z,1064.00
2024-05-09T18:11:45.309Z,840.00
2024-05-09T18:16:45.209Z,656.00
2024-05-09T18:21:45.255Z,488.00
2024-05-09T18:26:45.079Z,352.00
2024-05-09T18:31:45.018Z,252.00
2024-05-09T18:36:44.958Z,176.00
2024-05-09T18:41:44.889Z,112.00
2024-05-09T18:46:44.810Z,68.00
2024-05-09T18:51:44.827Z,40.00
2024-05-09T18:56:44.708Z,20.00
2024-05-09T19:01:44.743Z,12.00
2024-05-09T19:06:44.599Z,4.00
2024-05-09T19:11:44.510Z,4.00
2024-05-09T19:16:44.440Z,0.00
2024-05-09T19:21:44.403Z,0.00
2024-05-09T19:26:44.307Z,0.00
2024-05-09T19:31:44.375Z,0.00
2024-05-09T19:36:44.478Z,0.00
2024-05-09T19:41:44.077Z,0.00
2024-05-09T19:46:44.013Z,0.00
2024-05-09T19:51:44.070Z,0.00
2024-05-09T19:56:43.898Z,0.00
2024-05-09T20:01:44.078Z,0.00
2024-05-09T20:06:44.190Z,0.00
2024-05-09T20:11:43.709Z,0.00
2024-05-09T20:16:43.702Z,0.00
2024-05-09T20:21:43.605Z,0.00
2024-05-09T20:26:43.486Z,0.00
2024-05-09T20:31:43.447Z,0.00
2024-05-09T20:36:43.431Z,0.00
2024-05-09T20:41:43.297Z,0.00
2024-05-09T20:46:43.223Z,0.00
2024-05-09T20:51:43.183Z,0.00
2024-05-09T20:56:43.122Z,0.00
2024-05-09T21:01:44.935Z,0.00
2024-05-09T21:06:43.071Z,0.00
2024-05-09T21:11:43.009Z,0.00
2024-05-09T21:16:42.912Z,0.00
2024-05-09T21:21:43.027Z,0.00
2024-05-09T21:26:42.714Z,0.00
2024-05-09T21:31:42.634Z,0.00
2024-05-09T21:36:42.596Z,0.00
2024-05-09T21:41:42.509Z,0.00
2024-05-09T21:46:42.528Z,0.00
2024-05-09T21:51:42.403Z,0.00
2024-05-09T21:56:42.321Z,0.00
2024-05-09T22:01:42.315Z,0.00
2024-05-09T22:06:42.187Z,0.00
2024-05-09T22:11:42.154Z,0.00
2024-05-09T22:16:42.035Z,0.00
2024-05-09T22:21:42.273Z,0.00
2024-05-09T22:26:41.906Z,0.00
2024-05-09T22:31:41.843Z,0.00
2024-05-09T22:36:41.805Z,0.00
2024-05-09T22:41:41.732Z,0.00
2024-05-09T22:46:41.688Z,0.00
2024-05-09T22:51:41.574Z,0.00
2024-05-09T22:56:41.514Z,0.00
2024-05-09T23:01:41.578Z,0.00
2024-05-09T23:06:41.408Z,0.00
2024-05-09T23:11:41.340Z,0.00
2024-05-09T23:16:41.261Z,0.00
2024-05-09T23:21:41.280Z,0.00
2024-05-09T23:26:41.126Z,0.00
2024-05-09T23:31:41.051Z,0.00
2024-05-09T23:36:41.012Z,0.00
2024-05-09T23:41:40.920Z,0.00
2024-05-09T23:46:41.063Z,0.00
2024-05-09T23:51:40.810Z,0.00
2024-05-09T23:56:41.009Z,0.00
